createdAt,value
2019-05-23T00:02:28.259Z,16.20
2019-05-23T00:04:58.090Z,15.00
2019-05-23T00:07:28.271Z,15.77
2019-05-23T00:09:58.474Z,16.03
2019-05-23T00:12:43.602Z,16.70
2019-05-23T00:15:17.629Z,17.23
2019-05-23T00:17:46.332Z,16.97
2019-05-23T00:20:14.554Z,17.20
2019-05-23T00:22:44.601Z,18.13
2019-05-23T00:25:14.019Z,18.87
2019-05-23T00:27:43.398Z,17.20
2019-05-23T00:30:13.503Z,17.30
2019-05-23T00:32:47.566Z,19.93
2019-05-23T00:35:17.114Z,19.53
2019-05-23T00:37:45.993Z,22.70
2019-05-23T00:40:16.639Z,19.70
2019-05-23T00:42:45.487Z,18.80
2019-05-23T00:45:15.251Z,17.03
2019-05-23T00:47:43.441Z,15.80
2019-05-23T00:50:13.959Z,16.37
2019-05-23T00:52:42.578Z,16.70
2019-05-23T00:55:12.413Z,16.33
2019-05-23T00:57:41.823Z,17.10
2019-05-23T01:00:11.854Z,15.90
2019-05-23T01:02:40.541Z,15.97
2019-05-23T01:05:10.275Z,16.50
2019-05-23T01:07:40.191Z,16.93
2019-05-23T01:10:11.101Z,16.77
2019-05-23T01:12:40.215Z,18.83
2019-05-23T01:15:09.762Z,18.07
2019-05-23T01:17:38.417Z,18.17
2019-05-23T01:20:09.042Z,20.23
2019-05-23T01:22:37.585Z,19.73
2019-05-23T01:25:07.618Z,18.80
2019-05-23T01:27:36.012Z,19.13
2019-05-23T01:30:07.747Z,17.43
2019-05-23T01:32:38.553Z,18.30
2019-05-23T01:35:08.811Z,18.20
2019-05-23T01:37:38.002Z,18.57
2019-05-23T01:40:10.695Z,18.33
2019-05-23T01:42:40.056Z,19.57
2019-05-23T01:45:09.701Z,17.90
2019-05-23T01:47:37.962Z,19.07
2019-05-23T01:50:07.655Z,17.07
2019-05-23T01:52:35.941Z,18.13
2019-05-23T01:55:06.353Z,17.57
2019-05-23T01:57:34.899Z,17.97
2019-05-23T02:00:10.503Z,18.97
2019-05-23T02:02:36.166Z,17.90
2019-05-23T02:05:06.164Z,18.37
2019-05-23T02:07:34.895Z,18.63
2019-05-23T02:10:04.887Z,19.13
2019-05-23T02:12:33.501Z,19.10
2019-05-23T02:15:02.470Z,18.13
2019-05-23T02:17:31.305Z,15.87
2019-05-23T02:19:59.485Z,19.07
2019-05-23T02:22:28.304Z,19.60
2019-05-23T02:24:57.117Z,18.47
2019-05-23T02:27:26.716Z,18.10
2019-05-23T02:29:55.248Z,18.40
2019-05-23T02:32:23.611Z,18.40
2019-05-23T02:34:52.639Z,17.83
2019-05-23T02:37:28.952Z,16.30
2019-05-23T02:39:58.799Z,18.03
2019-05-23T02:42:40.987Z,20.23
2019-05-23T02:45:10.899Z,18.37
2019-05-23T02:47:39.833Z,18.47
2019-05-23T02:50:11.217Z,18.90
2019-05-23T02:52:42.115Z,18.10
2019-05-23T02:55:12.415Z,17.60
2019-05-23T02:57:40.628Z,17.00
2019-05-23T03:00:26.889Z,19.50
2019-05-23T03:02:58.283Z,17.87
2019-05-23T03:05:27.522Z,17.13
2019-05-23T03:07:58.957Z,16.97
2019-05-23T03:10:28.694Z,16.87
2019-05-23T03:12:58.468Z,16.67
2019-05-23T03:15:27.363Z,17.07
2019-05-23T03:17:58.162Z,16.63
2019-05-23T03:20:26.352Z,18.47
2019-05-23T03:22:56.137Z,18.27
2019-05-23T03:25:35.350Z,17.30
2019-05-23T03:28:05.427Z,17.50
2019-05-23T03:30:38.151Z,16.40
2019-05-23T03:33:11.811Z,16.83
2019-05-23T03:35:41.851Z,16.77
2019-05-23T03:38:10.868Z,16.53
2019-05-23T03:40:39.911Z,16.40
2019-05-23T03:43:09.071Z,17.53
2019-05-23T03:45:39.709Z,16.73
2019-05-23T03:48:08.532Z,18.97
2019-05-23T03:50:37.008Z,18.10
2019-05-23T03:53:07.212Z,17.90
2019-05-23T03:55:36.168Z,17.60
2019-05-23T03:58:04.831Z,19.47
2019-05-23T04:00:35.856Z,20.50
2019-05-23T04:03:04.193Z,21.87
2019-05-23T04:05:34.814Z,20.10
2019-05-23T04:08:03.863Z,18.80
2019-05-23T04:10:32.057Z,17.70
2019-05-23T04:13:00.421Z,17.37
2019-05-23T04:15:29.274Z,17.90
2019-05-23T04:17:57.630Z,15.23
2019-05-23T04:20:25.996Z,13.70
2019-05-23T04:22:54.684Z,13.20
2019-05-23T04:25:22.870Z,12.07
2019-05-23T04:27:51.059Z,10.33
2019-05-23T04:30:19.278Z,10.43
2019-05-23T04:32:47.978Z,10.33
2019-05-23T04:35:16.667Z,9.87
2019-05-23T04:37:45.815Z,9.07
2019-05-23T04:40:14.349Z,9.40
2019-05-23T04:42:42.615Z,8.70
2019-05-23T04:45:11.160Z,8.70
2019-05-23T04:47:40.512Z,9.07
2019-05-23T04:50:13.708Z,8.23
2019-05-23T04:52:42.843Z,8.73
2019-05-23T04:55:12.686Z,8.03
2019-05-23T04:57:41.134Z,8.87
2019-05-23T05:00:10.866Z,8.57
2019-05-23T05:02:39.829Z,8.93
2019-05-23T05:05:08.713Z,8.23
2019-05-23T05:07:37.541Z,7.17
2019-05-23T05:10:07.327Z,7.87
2019-05-23T05:12:35.627Z,8.43
2019-05-23T05:15:04.876Z,7.33
2019-05-23T05:17:33.251Z,7.83
2019-05-23T05:20:01.690Z,8.50
2019-05-23T05:22:30.074Z,8.30
2019-05-23T05:24:58.279Z,7.73
2019-05-23T05:27:26.532Z,7.90
2019-05-23T05:29:55.018Z,8.50
2019-05-23T05:32:23.898Z,8.17
2019-05-23T05:34:52.097Z,8.40
2019-05-23T05:37:20.303Z,8.40
2019-05-23T05:39:48.928Z,8.53
2019-05-23T05:42:17.722Z,9.13
2019-05-23T05:44:46.208Z,9.00
2019-05-23T05:47:14.789Z,8.90
2019-05-23T05:49:43.475Z,9.00
2019-05-23T05:52:11.742Z,9.13
2019-05-23T05:54:40.161Z,8.53
2019-05-23T05:57:08.370Z,9.43
2019-05-23T05:59:36.906Z,8.73
2019-05-23T06:02:06.750Z,8.77
2019-05-23T06:04:35.113Z,9.23
2019-05-23T06:07:21.395Z,8.50
2019-05-23T06:09:51.296Z,9.20
2019-05-23T06:12:20.836Z,10.05
2019-05-23T06:14:49.293Z,10.00
2019-05-23T06:17:19.394Z,9.53
2019-05-23T06:19:48.100Z,9.73
2019-05-23T06:22:17.959Z,9.80
2019-05-23T06:24:51.572Z,9.13
2019-05-23T06:27:18.035Z,9.78
2019-05-23T06:29:46.289Z,10.25
2019-05-23T06:32:16.277Z,10.10
2019-05-23T06:34:45.040Z,10.32
2019-05-23T06:37:13.730Z,10.55
2019-05-23T06:39:42.396Z,11.05
2019-05-23T06:42:10.783Z,11.18
2019-05-23T06:44:39.067Z,10.48
2019-05-23T06:47:07.634Z,10.45
2019-05-23T06:49:35.837Z,11.08
2019-05-23T06:52:04.110Z,10.80
2019-05-23T06:54:32.581Z,10.75
2019-05-23T06:57:01.059Z,11.08
2019-05-23T06:59:29.333Z,10.28
2019-05-23T07:01:58.954Z,10.50
2019-05-23T07:04:27.381Z,10.82
2019-05-23T07:06:55.650Z,11.03
2019-05-23T07:09:24.123Z,11.35
2019-05-23T07:11:53.850Z,10.88
2019-05-23T07:14:22.170Z,11.30
2019-05-23T07:16:50.540Z,12.10
2019-05-23T07:19:19.419Z,12.03
2019-05-23T07:21:47.635Z,11.20
2019-05-23T07:24:16.268Z,10.55
2019-05-23T07:26:46.335Z,8.85
2019-05-23T07:29:14.528Z,11.25
2019-05-23T07:31:42.893Z,9.23
2019-05-23T07:34:11.360Z,8.83
2019-05-23T07:36:39.718Z,9.28
2019-05-23T07:39:11.489Z,8.53
2019-05-23T07:41:39.596Z,7.47
2019-05-23T07:44:08.202Z,8.65
2019-05-23T07:46:36.448Z,8.45
2019-05-23T07:49:04.857Z,7.85
2019-05-23T07:51:33.103Z,6.90
2019-05-23T07:54:03.631Z,7.70
2019-05-23T07:56:39.724Z,6.47
2019-05-23T07:59:07.918Z,6.03
2019-05-23T08:01:37.757Z,6.87
2019-05-23T08:04:20.608Z,6.25
2019-05-23T08:06:36.238Z,6.47
2019-05-23T08:09:08.166Z,7.00
2019-05-23T08:11:36.418Z,6.67
2019-05-23T08:14:05.358Z,6.83
2019-05-23T08:16:33.636Z,6.08
2019-05-23T08:19:02.607Z,5.70
2019-05-23T08:21:30.975Z,5.67
2019-05-23T08:23:59.161Z,5.47
2019-05-23T08:26:28.566Z,6.28
2019-05-23T08:29:24.274Z,6.10
2019-05-23T08:31:27.016Z,5.35
2019-05-23T08:33:56.353Z,5.40
2019-05-23T08:36:24.596Z,5.67
2019-05-23T08:38:53.422Z,5.53
2019-05-23T08:41:21.680Z,6.08
2019-05-23T08:43:50.032Z,4.75
2019-05-23T08:46:18.370Z,4.78
2019-05-23T08:48:46.815Z,4.55
2019-05-23T08:51:15.171Z,4.85
2019-05-23T08:53:43.409Z,5.78
2019-05-23T08:56:18.789Z,4.90
2019-05-23T08:58:41.778Z,5.53
2019-05-23T09:01:09.957Z,4.60
2019-05-23T09:03:38.426Z,4.42
2019-05-23T09:06:07.107Z,4.97
2019-05-23T09:08:36.331Z,5.20
2019-05-23T09:11:04.797Z,5.33
2019-05-23T09:13:32.988Z,5.55
2019-05-23T09:16:01.475Z,4.33
2019-05-23T09:18:29.770Z,4.83
2019-05-23T09:20:58.393Z,5.42
2019-05-23T09:23:26.866Z,5.80
2019-05-23T09:25:55.103Z,6.42
2019-05-23T09:28:23.407Z,5.58
2019-05-23T09:30:51.953Z,5.28
2019-05-23T09:33:20.447Z,4.95
2019-05-23T09:35:48.824Z,4.03
2019-05-23T09:38:17.090Z,4.15
2019-05-23T09:40:45.412Z,4.42
2019-05-23T09:43:13.786Z,4.33
2019-05-23T09:45:42.506Z,4.28
2019-05-23T09:48:10.720Z,4.37
2019-05-23T09:50:38.897Z,4.37
2019-05-23T09:53:07.122Z,4.85
2019-05-23T09:55:35.590Z,5.15
2019-05-23T09:58:04.035Z,5.22
2019-05-23T10:00:33.876Z,5.22
2019-05-23T10:03:02.713Z,4.25
2019-05-23T10:05:42.807Z,4.40
2019-05-23T10:08:00.811Z,5.20
2019-05-23T10:10:29.880Z,4.47
2019-05-23T10:12:58.187Z,4.17
2019-05-23T10:15:40.320Z,4.00
2019-05-23T10:18:16.025Z,4.85
2019-05-23T10:20:44.761Z,4.60
2019-05-23T10:23:13.156Z,4.17
2019-05-23T10:25:41.396Z,4.40
2019-05-23T10:28:09.665Z,4.72
2019-05-23T10:30:37.845Z,4.28
2019-05-23T10:33:11.529Z,3.80
2019-05-23T10:35:36.478Z,3.90
2019-05-23T10:38:04.888Z,4.00
2019-05-23T10:40:33.315Z,4.20
2019-05-23T10:43:01.778Z,4.20
2019-05-23T10:45:29.968Z,4.10
2019-05-23T10:47:58.241Z,3.62
2019-05-23T10:50:26.651Z,4.12
2019-05-23T10:52:54.854Z,3.58
2019-05-23T10:55:23.033Z,4.15
2019-05-23T10:57:51.303Z,4.10
2019-05-23T11:00:23.215Z,4.58
2019-05-23T11:02:51.649Z,3.92
2019-05-23T11:05:20.726Z,3.42
2019-05-23T11:07:49.563Z,3.77
2019-05-23T11:10:17.839Z,3.27
2019-05-23T11:12:46.101Z,3.30
2019-05-23T11:15:14.773Z,3.80
2019-05-23T11:17:43.730Z,4.53
2019-05-23T11:20:12.681Z,4.85
2019-05-23T11:22:42.230Z,3.75
2019-05-23T11:25:15.079Z,5.30
2019-05-23T11:27:46.365Z,3.95
2019-05-23T11:30:16.526Z,3.90
2019-05-23T11:32:44.710Z,4.20
2019-05-23T11:35:13.590Z,3.50
2019-05-23T11:37:42.235Z,3.40
2019-05-23T11:40:10.703Z,3.30
2019-05-23T11:42:38.960Z,3.45
2019-05-23T11:45:07.493Z,4.10
2019-05-23T11:47:35.856Z,3.70
2019-05-23T11:50:05.592Z,3.58
2019-05-23T11:52:33.854Z,4.58
2019-05-23T11:55:02.238Z,3.85
2019-05-23T11:57:30.812Z,5.10
2019-05-23T11:59:59.158Z,4.78
2019-05-23T12:02:35.010Z,5.00
2019-05-23T12:05:05.728Z,4.22
2019-05-23T12:07:33.907Z,4.87
2019-05-23T12:10:02.262Z,4.30
2019-05-23T12:12:30.482Z,5.25
2019-05-23T12:14:58.818Z,4.80
2019-05-23T12:17:28.250Z,4.67
2019-05-23T12:19:56.446Z,4.45
2019-05-23T12:22:25.218Z,4.60
2019-05-23T12:24:53.407Z,5.00
2019-05-23T12:27:21.763Z,4.10
2019-05-23T12:29:50.398Z,4.60
2019-05-23T12:32:19.234Z,4.17
2019-05-23T12:35:07.956Z,4.83
2019-05-23T12:37:19.916Z,4.22
2019-05-23T12:39:47.482Z,4.25
2019-05-23T12:42:15.678Z,4.90
2019-05-23T12:44:43.860Z,4.53
2019-05-23T12:47:13.759Z,3.75
2019-05-23T12:49:43.668Z,4.12
2019-05-23T12:52:12.708Z,4.55
2019-05-23T12:54:41.370Z,3.98
2019-05-23T12:57:10.198Z,4.40
2019-05-23T12:59:38.455Z,4.40
2019-05-23T13:02:08.372Z,3.92
2019-05-23T13:04:36.567Z,4.05
2019-05-23T13:07:05.331Z,4.58
2019-05-23T13:09:33.605Z,4.33
2019-05-23T13:12:01.790Z,4.28
2019-05-23T13:14:30.017Z,4.10
2019-05-23T13:17:01.002Z,3.70
2019-05-23T13:19:28.626Z,3.77
2019-05-23T13:21:56.995Z,4.72
2019-05-23T13:24:25.960Z,3.70
2019-05-23T13:26:54.236Z,3.55
2019-05-23T13:29:24.585Z,4.50
2019-05-23T13:31:52.557Z,3.83
2019-05-23T13:34:20.751Z,3.80
2019-05-23T13:36:49.186Z,3.25
2019-05-23T13:39:17.893Z,3.20
2019-05-23T13:41:46.138Z,4.28
2019-05-23T13:44:31.951Z,3.67
2019-05-23T13:46:44.348Z,3.00
2019-05-23T13:49:12.530Z,2.98
2019-05-23T13:51:41.118Z,3.42
2019-05-23T13:54:09.310Z,2.85
2019-05-23T13:56:37.539Z,3.17
2019-05-23T13:59:06.046Z,3.02
2019-05-23T14:01:34.240Z,3.70
2019-05-23T14:04:02.511Z,2.83
2019-05-23T14:06:30.873Z,3.00
2019-05-23T14:08:59.066Z,3.60
2019-05-23T14:11:27.306Z,2.90
2019-05-23T14:14:00.142Z,2.90
2019-05-23T14:16:26.949Z,2.90
2019-05-23T14:18:55.158Z,3.35
2019-05-23T14:21:23.384Z,2.80
2019-05-23T14:23:51.590Z,3.05
2019-05-23T14:26:20.118Z,3.42
2019-05-23T14:28:48.447Z,3.55
2019-05-23T14:31:17.893Z,3.10
2019-05-23T14:33:50.853Z,3.12
2019-05-23T14:36:36.156Z,3.45
2019-05-23T14:39:07.504Z,3.05
2019-05-23T14:41:45.051Z,3.33
2019-05-23T14:44:07.221Z,2.90
2019-05-23T14:46:42.829Z,3.20
2019-05-23T14:49:12.821Z,3.42
2019-05-23T14:51:42.770Z,3.35
2019-05-23T14:54:29.229Z,3.10
2019-05-23T14:56:57.485Z,2.77
2019-05-23T14:59:26.932Z,3.08
2019-05-23T15:01:55.692Z,2.83
2019-05-23T15:04:24.180Z,2.90
2019-05-23T15:06:52.385Z,2.35
2019-05-23T15:09:21.713Z,2.47
2019-05-23T15:11:50.302Z,2.98
2019-05-23T15:14:18.546Z,3.90
2019-05-23T15:16:46.743Z,2.70
2019-05-23T15:19:15.020Z,2.70
2019-05-23T15:21:43.190Z,2.67
2019-05-23T15:24:11.401Z,2.80
2019-05-23T15:26:39.864Z,2.52
2019-05-23T15:29:08.056Z,3.08
2019-05-23T15:31:36.251Z,3.27
2019-05-23T15:34:04.499Z,3.35
2019-05-23T15:36:32.845Z,2.67
2019-05-23T15:39:09.317Z,2.57
2019-05-23T15:41:30.980Z,2.77
2019-05-23T15:43:59.205Z,2.70
2019-05-23T15:46:27.947Z,3.13
2019-05-23T15:48:56.200Z,2.70
2019-05-23T15:51:26.017Z,2.50
2019-05-23T15:54:10.821Z,2.30
2019-05-23T15:56:52.881Z,2.50
2019-05-23T15:59:22.731Z,2.50
2019-05-23T16:01:52.827Z,2.83
2019-05-23T16:04:24.979Z,2.47
2019-05-23T16:06:53.222Z,2.30
2019-05-23T16:09:29.293Z,2.80
2019-05-23T16:11:51.802Z,2.80
2019-05-23T16:14:20.660Z,2.80
2019-05-23T16:16:48.848Z,2.77
2019-05-23T16:19:17.160Z,2.40
2019-05-23T16:21:45.396Z,2.77
2019-05-23T16:24:13.953Z,2.67
2019-05-23T16:26:42.164Z,2.33
2019-05-23T16:29:11.714Z,2.80
2019-05-23T16:31:39.979Z,2.37
2019-05-23T16:34:08.185Z,2.63
2019-05-23T16:36:36.410Z,2.67
2019-05-23T16:39:06.369Z,4.13
2019-05-23T16:41:34.626Z,2.57
2019-05-23T16:44:03.138Z,3.00
2019-05-23T16:46:31.349Z,6.53
2019-05-23T16:48:59.592Z,3.90
2019-05-23T16:51:27.807Z,4.27
2019-05-23T16:53:56.447Z,4.13
2019-05-23T16:56:26.566Z,2.73
2019-05-23T16:58:56.401Z,2.87
2019-05-23T17:01:47.097Z,2.20
2019-05-23T17:04:15.645Z,2.70
2019-05-23T17:06:45.656Z,3.03
2019-05-23T17:09:15.498Z,2.67
2019-05-23T17:11:47.985Z,3.37
2019-05-23T17:14:17.889Z,3.80
2019-05-23T17:16:53.434Z,3.17
2019-05-23T17:19:33.038Z,3.70
2019-05-23T17:22:15.218Z,3.47
2019-05-23T17:24:54.495Z,4.93
2019-05-23T17:27:40.686Z,3.67
2019-05-23T17:30:13.697Z,3.90
2019-05-23T17:32:41.958Z,6.50
2019-05-23T17:35:11.745Z,5.47
2019-05-23T17:37:39.979Z,3.63
2019-05-23T17:40:23.459Z,3.33
2019-05-23T17:42:38.622Z,3.83
2019-05-23T17:45:06.975Z,3.20
2019-05-23T17:47:36.046Z,3.60
2019-05-23T17:50:07.838Z,3.47
2019-05-23T17:52:36.011Z,4.80
2019-05-23T17:55:05.491Z,4.13
2019-05-23T17:57:33.695Z,3.13
2019-05-23T18:00:02.017Z,2.43
2019-05-23T18:02:30.211Z,4.30
2019-05-23T18:04:58.454Z,3.40
2019-05-23T18:07:27.130Z,3.27
2019-05-23T18:09:55.314Z,3.47
2019-05-23T18:12:23.784Z,2.80
2019-05-23T18:14:52.774Z,3.10
2019-05-23T18:17:21.020Z,3.07
2019-05-23T18:19:49.232Z,3.23
2019-05-23T18:22:18.313Z,3.70
2019-05-23T18:24:47.169Z,3.77
2019-05-23T18:27:15.594Z,3.70
2019-05-23T18:29:43.782Z,3.60
2019-05-23T18:32:13.894Z,4.10
2019-05-23T18:34:42.085Z,3.67
2019-05-23T18:37:10.686Z,3.53
2019-05-23T18:39:39.650Z,3.43
2019-05-23T18:42:08.001Z,3.60
2019-05-23T18:44:36.206Z,6.30
2019-05-23T18:47:06.119Z,4.00
2019-05-23T18:49:34.299Z,5.27
2019-05-23T18:52:03.248Z,4.80
2019-05-23T18:54:31.434Z,3.70
2019-05-23T18:56:59.623Z,3.47
2019-05-23T18:59:27.991Z,3.40
2019-05-23T19:01:56.203Z,3.77
2019-05-23T19:04:24.425Z,3.50
2019-05-23T19:06:52.784Z,4.03
2019-05-23T19:09:21.962Z,3.53
2019-05-23T19:11:50.226Z,7.73
2019-05-23T19:14:18.500Z,4.00
2019-05-23T19:16:47.070Z,5.40
2019-05-23T19:19:15.607Z,6.43
2019-05-23T19:21:44.359Z,6.00
2019-05-23T19:24:12.546Z,7.17
2019-05-23T19:26:41.174Z,4.40
2019-05-23T19:29:09.692Z,4.50
2019-05-23T19:31:38.048Z,4.63
2019-05-23T19:34:06.797Z,5.83
2019-05-23T19:36:35.189Z,5.90
2019-05-23T19:39:05.518Z,6.10
2019-05-23T19:41:37.820Z,4.53
2019-05-23T19:44:04.993Z,4.00
2019-05-23T19:46:33.398Z,4.60
2019-05-23T19:49:01.857Z,5.70
2019-05-23T19:51:30.183Z,5.40
2019-05-23T19:53:59.318Z,6.47
2019-05-23T19:56:27.698Z,9.70
2019-05-23T19:58:56.401Z,6.87
2019-05-23T20:01:26.268Z,6.37
2019-05-23T20:03:54.727Z,6.20
2019-05-23T20:06:23.464Z,6.30
2019-05-23T20:08:52.386Z,6.60
2019-05-23T20:11:20.659Z,6.17
2019-05-23T20:13:48.919Z,7.00
2019-05-23T20:16:17.099Z,6.30
2019-05-23T20:18:45.298Z,6.63
2019-05-23T20:21:13.491Z,7.03
2019-05-23T20:23:41.715Z,8.00
2019-05-23T20:26:10.167Z,7.93
2019-05-23T20:28:40.085Z,7.97
2019-05-23T20:31:08.898Z,8.07
2019-05-23T20:33:37.078Z,7.70
2019-05-23T20:36:11.035Z,7.90
2019-05-23T20:38:37.108Z,8.20
2019-05-23T20:41:05.328Z,10.37
2019-05-23T20:43:33.580Z,9.13
2019-05-23T20:46:01.895Z,10.10
2019-05-23T20:48:30.298Z,10.57
2019-05-23T20:50:58.653Z,9.83
2019-05-23T20:53:26.844Z,8.60
2019-05-23T20:55:55.032Z,8.00
2019-05-23T20:58:23.225Z,9.30
2019-05-23T21:00:53.062Z,9.80
2019-05-23T21:03:21.618Z,10.57
2019-05-23T21:05:49.876Z,11.30
2019-05-23T21:08:18.155Z,9.40
2019-05-23T21:10:47.447Z,8.97
2019-05-23T21:13:16.269Z,9.40
2019-05-23T21:15:44.650Z,9.97
2019-05-23T21:18:13.041Z,10.90
2019-05-23T21:20:41.794Z,9.80
2019-05-23T21:23:09.993Z,9.57
2019-05-23T21:25:39.851Z,10.10
2019-05-23T21:28:08.038Z,10.50
2019-05-23T21:30:36.329Z,10.10
2019-05-23T21:33:05.096Z,10.00
2019-05-23T21:35:33.737Z,11.63
2019-05-23T21:38:01.938Z,12.37
2019-05-23T21:40:31.833Z,10.97
2019-05-23T21:43:00.199Z,9.37
2019-05-23T21:45:28.393Z,10.10
2019-05-23T21:47:56.582Z,9.73
2019-05-23T21:50:24.850Z,9.73
2019-05-23T21:52:53.039Z,9.57
2019-05-23T21:55:32.045Z,8.53
2019-05-23T21:58:00.290Z,8.90
2019-05-23T22:00:31.668Z,8.47
2019-05-23T22:03:00.316Z,9.60
2019-05-23T22:05:28.502Z,10.00
2019-05-23T22:08:08.254Z,9.33
2019-05-23T22:10:36.545Z,9.70
2019-05-23T22:13:05.040Z,9.87
2019-05-23T22:15:36.354Z,9.80
2019-05-23T22:18:04.557Z,9.70
2019-05-23T22:20:34.042Z,9.43
2019-05-23T22:23:02.225Z,9.93
2019-05-23T22:25:31.600Z,9.03
2019-05-23T22:27:59.957Z,9.73
2019-05-23T22:30:28.285Z,9.10
2019-05-23T22:32:56.482Z,10.57
2019-05-23T22:35:24.847Z,10.17
2019-05-23T22:37:53.054Z,12.43
2019-05-23T22:40:21.236Z,11.87
2019-05-23T22:42:49.460Z,11.87
2019-05-23T22:45:19.287Z,11.17
2019-05-23T22:47:47.485Z,10.43
2019-05-23T22:50:15.744Z,10.27
2019-05-23T22:52:44.003Z,9.63
2019-05-23T22:55:12.351Z,8.93
2019-05-23T22:57:40.670Z,10.40
2019-05-23T23:00:09.198Z,10.03
2019-05-23T23:02:37.414Z,10.60
2019-05-23T23:05:05.667Z,10.33
2019-05-23T23:07:33.859Z,21.37
2019-05-23T23:10:02.057Z,10.93
2019-05-23T23:12:30.258Z,12.17
2019-05-23T23:14:58.654Z,11.43
2019-05-23T23:17:26.879Z,11.80
2019-05-23T23:19:55.058Z,11.67
2019-05-23T23:22:23.261Z,12.10
2019-05-23T23:24:51.451Z,11.97
2019-05-23T23:27:19.657Z,11.07
2019-05-23T23:29:47.858Z,10.97
2019-05-23T23:32:16.354Z,11.20
2019-05-23T23:34:44.553Z,11.77
2019-05-23T23:37:12.879Z,11.43
2019-05-23T23:39:41.198Z,11.27
2019-05-23T23:42:09.863Z,11.50
2019-05-23T23:44:37.458Z,10.40
2019-05-23T23:47:24.140Z,11.50
2019-05-23T23:50:10.764Z,10.67
2019-05-23T23:52:57.407Z,11.33
2019-05-23T23:55:44.260Z,10.43
2019-05-23T23:58:12.030Z,11.77
